Time;durP1;ratioP1;P1;durP2;ratioP2;P2;SDS_P1;SDS_P2;PMS_P1;PMS_P2;Temp;Humidity;BMP_temperature;BMP_pressure;BME280_temperature;BME280_humidity;BME280_pressure;Samples;Min_cycle;Max_cycle;Signal;HPM_P1;HPM_P2
2022/07/29 00:02:02;;;;;;;0.20;0.20;;;18.40;99.90;;;;;;5031419;28;20171;-73
2022/07/29 00:04:28;;;;;;;0.30;0.30;;;18.40;99.90;;;;;;5031363;28;20325;-73
2022/07/29 00:06:53;;;;;;;0.43;0.43;;;18.40;99.90;;;;;;5032015;28;20183;-73
2022/07/29 00:09:19;;;;;;;0.30;0.30;;;18.40;99.90;;;;;;5031322;28;20168;-73
2022/07/29 00:11:44;;;;;;;0.30;0.30;;;18.40;99.90;;;;;;5031387;28;20184;-73
2022/07/29 00:14:10;;;;;;;0.20;0.20;;;18.50;99.90;;;;;;5031388;28;20634;-73
2022/07/29 00:16:35;;;;;;;0.30;0.30;;;18.50;99.90;;;;;;5031394;28;20523;-74
2022/07/29 00:19:01;;;;;;;0.30;0.30;;;18.50;99.90;;;;;;5031041;28;20239;-74
2022/07/29 00:21:26;;;;;;;0.40;0.40;;;18.40;99.90;;;;;;5031525;28;20645;-73
2022/07/29 00:23:52;;;;;;;0.30;0.30;;;18.40;99.90;;;;;;5031211;28;20692;-73
2022/07/29 00:26:17;;;;;;;0.30;0.30;;;18.40;99.90;;;;;;5031210;28;20338;-73
2022/07/29 00:28:43;;;;;;;0.30;0.30;;;18.30;99.90;;;;;;5031305;28;20210;-73
2022/07/29 00:31:09;;;;;;;0.30;0.30;;;18.40;99.90;;;;;;5030768;28;20209;-73
2022/07/29 00:33:34;;;;;;;0.30;0.30;;;18.30;99.90;;;;;;5031086;28;20192;-73
2022/07/29 00:36:00;;;;;;;0.30;0.30;;;18.20;99.90;;;;;;5030990;28;20180;-73
2022/07/29 00:38:25;;;;;;;0.30;0.30;;;18.10;99.90;;;;;;5031150;28;20647;-73
2022/07/29 00:40:51;;;;;;;0.30;0.30;;;18.00;99.90;;;;;;5031989;28;20172;-73
2022/07/29 00:43:17;;;;;;;0.37;0.37;;;17.90;99.90;;;;;;5034808;28;20203;-73
2022/07/29 00:45:43;;;;;;;0.30;0.30;;;17.90;99.90;;;;;;5035504;28;20245;-73
2022/07/29 00:48:09;;;;;;;0.20;0.20;;;17.90;99.90;;;;;;5034655;28;20257;-73
2022/07/29 00:50:35;;;;;;;0.30;0.30;;;17.90;99.90;;;;;;5034093;28;20183;-73
2022/07/29 00:53:02;;;;;;;0.30;0.30;;;18.00;99.90;;;;;;5034664;28;20231;-73
2022/07/29 00:55:29;;;;;;;0.30;0.30;;;17.90;99.90;;;;;;5034305;28;20184;-73
2022/07/29 00:57:55;;;;;;;0.30;0.30;;;18.00;99.90;;;;;;5034456;28;20226;-73
2022/07/29 01:00:24;;;;;;;0.40;0.40;;;17.90;99.90;;;;;;5033964;28;20187;-73
2022/07/29 01:02:50;;;;;;;0.30;0.30;;;17.80;99.90;;;;;;5034296;28;20212;-74
2022/07/29 01:05:18;;;;;;;0.30;0.30;;;17.70;99.90;;;;;;5034749;28;20540;-74
2022/07/29 01:07:45;;;;;;;0.30;0.30;;;17.70;99.90;;;;;;5034502;28;20203;-73
2022/07/29 01:10:13;;;;;;;0.30;0.30;;;17.70;99.90;;;;;;5034052;28;20179;-73
2022/07/29 01:12:40;;;;;;;0.30;0.30;;;17.70;99.90;;;;;;5034353;28;20216;-74
2022/07/29 01:15:07;;;;;;;0.30;0.30;;;17.70;99.90;;;;;;5034283;28;20184;-74
2022/07/29 01:17:44;;;;;;;0.40;0.40;;;17.70;99.90;;;;;;5033962;28;20214;-73
2022/07/29 01:20:48;;;;;;;0.30;0.30;;;17.70;99.90;;;;;;5033820;28;20270;-73
2022/07/29 01:23:34;;;;;;;0.20;0.20;;;17.70;99.90;;;;;;5033807;28;20719;-73
2022/07/29 01:26:45;;;;;;;0.30;0.30;;;17.60;99.90;;;;;;5033946;28;20302;-73
2022/07/29 01:29:29;;;;;;;0.30;0.30;;;17.70;99.90;;;;;;5033550;28;20184;-73
2022/07/29 01:35:19;;;;;;;0.30;0.30;;;17.60;99.90;;;;;;5030353;28;20191;-73
2022/07/29 01:37:47;;;;;;;0.30;0.30;;;17.60;99.90;;;;;;5033619;28;20219;-73
2022/07/29 01:40:24;;;;;;;0.30;0.30;;;17.50;99.90;;;;;;5033171;28;20612;-73
2022/07/29 01:42:54;;;;;;;0.30;0.30;;;17.50;99.90;;;;;;5033768;28;20192;-73
2022/07/29 01:45:31;;;;;;;0.33;0.33;;;17.50;99.90;;;;;;5033725;28;20525;-73
2022/07/29 01:48:19;;;;;;;0.33;0.33;;;17.50;99.90;;;;;;5033694;28;20172;-73
2022/07/29 01:51:07;;;;;;;0.30;0.30;;;17.40;99.90;;;;;;5032950;28;20187;-73
2022/07/29 01:53:38;;;;;;;0.30;0.30;;;17.40;99.90;;;;;;5033523;28;20190;-72
2022/07/29 01:56:06;;;;;;;0.30;0.30;;;17.40;99.90;;;;;;5033554;28;20551;-72
2022/07/29 01:58:35;;;;;;;0.20;0.20;;;17.30;99.90;;;;;;5033405;28;20211;-72
2022/07/29 02:01:03;;;;;;;0.20;0.20;;;17.30;99.90;;;;;;5032906;28;20198;-72
2022/07/29 02:03:31;;;;;;;0.30;0.30;;;17.40;99.90;;;;;;5033146;28;20195;-72
2022/07/29 02:05:59;;;;;;;0.30;0.30;;;17.40;99.90;;;;;;5033526;28;20286;-72
2022/07/29 02:08:25;;;;;;;0.30;0.30;;;17.50;99.90;;;;;;5033166;28;20638;-72
2022/07/29 02:10:52;;;;;;;0.30;0.30;;;17.40;99.90;;;;;;5032990;28;20208;-73
2022/07/29 02:13:20;;;;;;;0.30;0.30;;;17.40;99.90;;;;;;5034224;28;20199;-72
2022/07/29 02:15:47;;;;;;;0.20;0.20;;;17.40;99.90;;;;;;5036647;28;20393;-72
2022/07/29 02:18:18;;;;;;;0.30;0.30;;;17.40;99.90;;;;;;5036160;28;20248;-72
2022/07/29 02:20:47;;;;;;;0.30;0.30;;;17.40;99.90;;;;;;5033573;28;20176;-72
2022/07/29 02:23:17;;;;;;;0.30;0.30;;;17.30;99.90;;;;;;5032639;28;20207;-72
2022/07/29 02:25:43;;;;;;;0.30;0.30;;;17.30;99.90;;;;;;5032892;28;20202;-72
2022/07/29 02:28:09;;;;;;;0.33;0.33;;;17.30;99.90;;;;;;5032671;28;20673;-72
2022/07/29 02:30:41;;;;;;;0.30;0.30;;;17.20;99.90;;;;;;5032015;28;20285;-72
2022/07/29 02:33:09;;;;;;;0.30;0.30;;;17.20;99.90;;;;;;5032499;28;20207;-72
2022/07/29 02:35:36;;;;;;;0.20;0.20;;;17.30;99.90;;;;;;5032522;28;20653;-72
2022/07/29 02:40:48;;;;;;;0.40;0.40;;;17.30;99.90;;;;;;5031987;28;20513;-72
2022/07/29 02:43:14;;;;;;;0.30;0.30;;;17.20;99.90;;;;;;5032550;28;20203;-72
2022/07/29 02:45:40;;;;;;;0.30;0.30;;;17.10;99.90;;;;;;5033990;28;20180;-72
2022/07/29 02:48:12;;;;;;;0.30;0.30;;;17.00;99.90;;;;;;5032480;28;20202;-72
2022/07/29 02:50:49;;;;;;;0.40;0.40;;;16.90;99.90;;;;;;5031700;28;20703;-72
2022/07/29 02:53:19;;;;;;;0.20;0.20;;;17.00;99.90;;;;;;5032136;28;20203;-72
2022/07/29 02:55:56;;;;;;;0.30;0.30;;;16.90;99.90;;;;;;5032704;28;20180;-73
2022/07/29 02:58:31;;;;;;;0.30;0.30;;;16.90;99.90;;;;;;5032131;28;20212;-74
2022/07/29 03:00:59;;;;;;;0.40;0.40;;;16.80;99.90;;;;;;5031961;28;20182;-74
2022/07/29 03:03:33;;;;;;;0.20;0.20;;;16.80;99.90;;;;;;5031566;28;20246;-74
2022/07/29 03:06:02;;;;;;;0.37;0.37;;;16.90;99.90;;;;;;5032132;28;20190;-74
2022/07/29 03:08:27;;;;;;;0.40;0.40;;;16.90;99.90;;;;;;5032256;28;20175;-74
2022/07/29 03:10:54;;;;;;;0.30;0.30;;;16.90;99.90;;;;;;5031696;28;20188;-74
2022/07/29 03:13:20;;;;;;;0.30;0.30;;;16.90;99.90;;;;;;5031949;28;20207;-74
2022/07/29 03:15:46;;;;;;;0.40;0.40;;;16.90;99.90;;;;;;5031975;28;20182;-74
2022/07/29 03:18:12;;;;;;;0.40;0.40;;;16.80;99.90;;;;;;5031718;28;20723;-75
2022/07/29 03:20:39;;;;;;;0.33;0.33;;;16.60;99.90;;;;;;5031267;28;20168;-74
2022/07/29 03:23:04;;;;;;;0.33;0.33;;;16.40;99.90;;;;;;5046939;23;20207;-82
2022/07/29 03:25:31;;;;;;;0.30;0.30;;;16.40;99.90;;;;;;5032461;28;20214;-83
2022/07/29 03:27:56;;;;;;;0.30;0.30;;;16.20;99.90;;;;;;5033571;28;20180;-82
2022/07/29 03:30:22;;;;;;;0.30;0.30;;;16.20;99.90;;;;;;5034324;28;20186;-82
2022/07/29 03:32:50;;;;;;;0.30;0.30;;;16.30;99.90;;;;;;5032967;28;20200;-81
2022/07/29 03:35:19;;;;;;;0.30;0.30;;;16.20;99.90;;;;;;5033358;28;20279;-83
2022/07/29 03:37:45;;;;;;;0.30;0.30;;;16.20;99.90;;;;;;5033904;28;20643;-80
2022/07/29 03:40:17;;;;;;;0.33;0.33;;;16.20;99.90;;;;;;5038176;28;20274;-81
2022/07/29 03:42:45;;;;;;;0.30;0.30;;;16.20;99.90;;;;;;5038144;28;20192;-81
2022/07/29 03:45:15;;;;;;;0.30;0.30;;;16.20;99.90;;;;;;5037154;28;20266;-82
2022/07/29 03:47:50;;;;;;;0.40;0.40;;;16.10;99.90;;;;;;5037781;28;20550;-81
2022/07/29 03:50:16;;;;;;;0.30;0.30;;;16.10;99.90;;;;;;5034223;28;20562;-82
2022/07/29 03:52:42;;;;;;;0.30;0.30;;;16.10;99.90;;;;;;5035097;28;20207;-81
2022/07/29 03:55:09;;;;;;;0.30;0.30;;;16.10;99.90;;;;;;5035517;28;20183;-82
2022/07/29 03:57:35;;;;;;;0.40;0.40;;;16.10;99.90;;;;;;5034790;28;20684;-81
2022/07/29 04:00:03;;;;;;;0.30;0.30;;;16.20;99.90;;;;;;5034481;28;20203;-82
2022/07/29 04:02:30;;;;;;;0.40;0.40;;;16.30;99.90;;;;;;5034380;28;20652;-82
2022/07/29 04:04:56;;;;;;;0.37;0.37;;;16.30;99.90;;;;;;5034667;28;20194;-82
2022/07/29 04:07:21;;;;;;;0.30;0.30;;;16.30;99.90;;;;;;5035122;28;20270;-82
2022/07/29 04:09:47;;;;;;;0.43;0.43;;;16.20;99.90;;;;;;5034539;28;20267;-81
2022/07/29 04:12:12;;;;;;;0.50;0.50;;;16.30;99.90;;;;;;5039796;28;20207;-81
2022/07/29 04:14:38;;;;;;;0.30;0.30;;;16.30;99.90;;;;;;5040931;28;20278;-82
2022/07/29 04:17:04;;;;;;;0.30;0.30;;;16.30;99.90;;;;;;5044035;28;20552;-81
2022/07/29 04:19:29;;;;;;;0.33;0.33;;;16.40;99.90;;;;;;5043811;28;20720;-81
2022/07/29 04:21:55;;;;;;;0.40;0.40;;;16.40;99.90;;;;;;5043957;28;20179;-81
2022/07/29 04:24:21;;;;;;;0.40;0.40;;;16.40;99.90;;;;;;5042054;28;20206;-82
2022/07/29 04:26:47;;;;;;;0.40;0.40;;;16.40;99.90;;;;;;5041799;28;20258;-81
2022/07/29 04:29:14;;;;;;;0.30;0.30;;;16.40;99.90;;;;;;5040733;28;20172;-79
2022/07/29 04:31:43;;;;;;;0.27;0.27;;;16.50;99.90;;;;;;5042415;28;20187;-81
2022/07/29 04:34:09;;;;;;;0.40;0.40;;;16.40;99.90;;;;;;5042132;28;20733;-81
2022/07/29 04:36:35;;;;;;;0.50;0.50;;;16.40;99.90;;;;;;5041158;28;20337;-81
2022/07/29 04:39:01;;;;;;;0.40;0.40;;;16.50;99.90;;;;;;5041708;28;20676;-81
2022/07/29 04:41:28;;;;;;;0.30;0.30;;;16.70;99.90;;;;;;5041419;28;20226;-80
2022/07/29 04:43:53;;;;;;;0.30;0.30;;;16.90;99.90;;;;;;5041573;28;20283;-79
2022/07/29 04:46:19;;;;;;;0.30;0.30;;;17.20;99.90;;;;;;5041817;28;20615;-79
2022/07/29 04:48:48;;;;;;;0.40;0.40;;;17.50;99.90;;;;;;5041276;28;20180;-80
2022/07/29 04:51:16;;;;;;;0.33;0.33;;;17.40;99.90;;;;;;5040511;28;20594;-79
2022/07/29 04:53:42;;;;;;;0.40;0.40;;;17.30;99.90;;;;;;5041606;28;20206;-79
2022/07/29 04:56:07;;;;;;;0.40;0.40;;;17.10;99.90;;;;;;5041217;28;20266;-82
2022/07/29 04:58:37;;;;;;;0.40;0.40;;;17.10;99.90;;;;;;5041634;28;20680;-79
2022/07/29 05:01:03;;;;;;;0.30;0.30;;;17.20;99.90;;;;;;5039563;28;20180;-80
2022/07/29 05:03:28;;;;;;;0.30;0.30;;;17.50;99.90;;;;;;5040220;28;20279;-80
2022/07/29 05:05:54;;;;;;;0.30;0.30;;;17.50;99.90;;;;;;5040761;28;20611;-82
2022/07/29 05:08:20;;;;;;;0.40;0.40;;;17.50;99.90;;;;;;5041198;28;20226;-80
2022/07/29 05:10:45;;;;;;;0.40;0.40;;;18.00;99.90;;;;;;5040370;28;20219;-80
2022/07/29 05:13:11;;;;;;;0.30;0.30;;;17.80;99.90;;;;;;5041018;28;20557;-80
2022/07/29 05:15:37;;;;;;;0.30;0.30;;;17.80;99.90;;;;;;5041575;28;20176;-80
2022/07/29 05:18:03;;;;;;;0.30;0.30;;;18.50;99.90;;;;;;5042120;28;20307;-80
2022/07/29 05:20:30;;;;;;;0.40;0.40;;;19.00;99.90;;;;;;5042065;28;20183;-81
2022/07/29 05:22:59;;;;;;;0.30;0.30;;;19.10;99.90;;;;;;5042632;28;20199;-81
2022/07/29 05:25:26;;;;;;;0.30;0.30;;;19.00;99.90;;;;;;5042217;28;20206;-80
2022/07/29 05:27:52;;;;;;;0.30;0.30;;;18.60;99.90;;;;;;5037055;28;21392;-81
2022/07/29 05:30:18;;;;;;;0.40;0.40;;;18.70;99.90;;;;;;5041554;28;20258;-81
2022/07/29 05:32:44;;;;;;;0.40;0.40;;;18.60;99.90;;;;;;5047345;28;20204;-81
2022/07/29 05:35:10;;;;;;;0.37;0.37;;;18.60;99.90;;;;;;5039860;28;20178;-81
2022/07/29 05:37:35;;;;;;;0.30;0.30;;;18.50;99.90;;;;;;5039832;28;20639;-81
2022/07/29 05:40:02;;;;;;;0.30;0.30;;;18.40;99.90;;;;;;5038086;28;20233;-80
2022/07/29 05:42:28;;;;;;;0.30;0.30;;;18.50;99.90;;;;;;5040177;28;20190;-81
2022/07/29 05:44:54;;;;;;;0.60;0.60;;;18.40;99.90;;;;;;5037093;28;20262;-81
2022/07/29 05:47:19;;;;;;;0.20;0.20;;;18.70;99.90;;;;;;5036202;28;20199;-82
2022/07/29 05:49:45;;;;;;;0.30;0.30;;;18.50;99.90;;;;;;5041665;28;20190;-82
2022/07/29 05:52:12;;;;;;;0.30;0.30;;;18.60;99.90;;;;;;5039850;28;20203;-82
2022/07/29 05:54:38;;;;;;;0.30;0.30;;;18.90;99.90;;;;;;5039759;28;20227;-80
2022/07/29 05:57:05;;;;;;;0.30;0.30;;;19.10;99.90;;;;;;5040928;28;20172;-82
2022/07/29 05:59:31;;;;;;;0.30;0.30;;;19.20;99.90;;;;;;5038879;28;20321;-81
2022/07/29 06:01:57;;;;;;;0.43;0.43;;;19.00;99.90;;;;;;5036220;28;20187;-80
2022/07/29 06:04:22;;;;;;;0.30;0.30;;;18.80;99.90;;;;;;5037713;28;20554;-80
2022/07/29 06:06:48;;;;;;;0.20;0.20;;;18.90;99.90;;;;;;5039737;28;20190;-83
2022/07/29 06:09:14;;;;;;;0.30;0.30;;;19.00;99.90;;;;;;5036643;28;20196;-82
2022/07/29 06:11:40;;;;;;;0.40;0.40;;;19.00;99.90;;;;;;5038846;28;21960;-81
2022/07/29 06:14:05;;;;;;;0.30;0.30;;;19.00;99.90;;;;;;5037352;28;20191;-81
2022/07/29 06:16:31;;;;;;;0.40;0.40;;;19.00;99.90;;;;;;5038355;28;20233;-81
2022/07/29 06:18:57;;;;;;;0.30;0.30;;;19.00;99.90;;;;;;5038224;28;20359;-82
2022/07/29 06:21:22;;;;;;;0.30;0.30;;;19.20;99.90;;;;;;5038351;28;20176;-81
2022/07/29 06:23:48;;;;;;;0.30;0.30;;;19.10;99.90;;;;;;5039755;28;20226;-81
2022/07/29 06:26:13;;;;;;;0.30;0.30;;;19.10;99.90;;;;;;5038302;28;20325;-80
2022/07/29 06:28:39;;;;;;;0.30;0.30;;;19.20;99.90;;;;;;5038729;28;20592;-82
2022/07/29 06:31:05;;;;;;;0.30;0.30;;;19.30;99.90;;;;;;5039154;28;20266;-80
2022/07/29 06:33:31;;;;;;;0.30;0.30;;;19.50;99.90;;;;;;5038658;28;20199;-80
2022/07/29 06:35:56;;;;;;;0.30;0.30;;;19.60;99.90;;;;;;5037986;28;20187;-80
2022/07/29 06:38:22;;;;;;;0.30;0.30;;;19.70;99.90;;;;;;5037516;28;20639;-81
2022/07/29 06:40:59;;;;;;;0.20;0.20;;;19.80;99.90;;;;;;5040803;28;20168;-81
2022/07/29 06:43:26;;;;;;;0.40;0.40;;;20.00;99.90;;;;;;5041026;28;20240;-82
2022/07/29 06:45:52;;;;;;;0.30;0.30;;;20.40;99.90;;;;;;5039424;28;20187;-82
2022/07/29 06:48:18;;;;;;;0.30;0.30;;;20.80;99.40;;;;;;5040524;28;20184;-80
2022/07/29 06:50:43;;;;;;;0.30;0.30;;;21.00;1.00;;;;;;5037902;28;20256;-81
2022/07/29 06:53:09;;;;;;;0.30;0.30;;;21.10;1.00;;;;;;5039218;28;20227;-82
2022/07/29 06:55:36;;;;;;;0.30;0.30;;;21.00;1.00;;;;;;5039263;28;20180;-81
2022/07/29 06:58:02;;;;;;;0.30;0.30;;;21.10;1.00;;;;;;5037480;28;20285;-82
2022/07/29 07:00:27;;;;;;;0.20;0.20;;;21.30;1.00;;;;;;5037797;28;20545;-82
2022/07/29 07:03:18;;;;;;;0.30;0.30;;;21.60;1.00;;;;;;5040455;28;20207;-81
2022/07/29 07:05:44;;;;;;;0.30;0.30;;;22.00;1.00;;;;;;5041535;28;20343;-81
2022/07/29 07:08:11;;;;;;;0.30;0.30;;;22.10;1.00;;;;;;5040163;28;20208;-82
2022/07/29 07:10:37;;;;;;;0.20;0.20;;;21.90;1.00;;;;;;5039776;28;20222;-82
2022/07/29 07:13:04;;;;;;;0.20;0.20;;;22.10;1.00;;;;;;5039929;28;20681;-81
2022/07/29 07:16:06;;;;;;;0.33;0.33;;;21.90;1.00;;;;;;5039054;28;20206;-80
2022/07/29 07:18:32;;;;;;;0.30;0.30;;;21.60;1.00;;;;;;5047002;28;20222;-81
2022/07/29 07:20:58;;;;;;;0.20;0.20;;;21.70;1.00;;;;;;5037998;28;20258;-82
2022/07/29 07:23:25;;;;;;;0.40;0.40;;;21.70;1.00;;;;;;5037258;28;20234;-81
2022/07/29 07:25:50;;;;;;;0.30;0.30;;;21.80;1.00;;;;;;5035206;28;20239;-82
2022/07/29 07:28:16;;;;;;;0.30;0.30;;;21.80;1.00;;;;;;5039316;28;20214;-82
2022/07/29 07:30:42;;;;;;;0.20;0.20;;;21.80;1.00;;;;;;5037507;28;20175;-81
2022/07/29 07:33:07;;;;;;;0.30;0.30;;;22.10;1.00;;;;;;5038475;28;20199;-81
2022/07/29 07:35:33;;;;;;;0.30;0.30;;;22.00;1.00;;;;;;5042712;28;20168;-82
2022/07/29 07:37:58;;;;;;;0.20;0.20;;;21.90;1.00;;;;;;5039718;28;20221;-81
2022/07/29 07:40:24;;;;;;;0.30;0.30;;;22.10;1.00;;;;;;5036009;28;20209;-81
2022/07/29 07:42:50;;;;;;;0.30;0.30;;;22.10;1.00;;;;;;5038525;28;20200;-82
2022/07/29 07:45:15;;;;;;;0.37;0.37;;;22.10;1.00;;;;;;5038830;28;20195;-81
2022/07/29 07:47:41;;;;;;;0.27;0.27;;;22.50;1.00;;;;;;5039785;28;20172;-81
2022/07/29 07:50:09;;;;;;;0.23;0.23;;;23.30;1.00;;;;;;5038067;28;20176;-82
2022/07/29 07:52:45;;;;;;;0.50;0.50;;;24.00;1.00;;;;;;5042306;28;20207;-82
2022/07/29 07:55:10;;;;;;;0.30;0.30;;;24.50;99.90;;;;;;5038755;28;20249;-81
2022/07/29 07:57:36;;;;;;;0.40;0.40;;;24.60;1.00;;;;;;5037716;28;20207;-81
2022/07/29 08:00:02;;;;;;;0.40;0.40;;;24.60;1.00;;;;;;5037357;28;20264;-82
2022/07/29 08:02:28;;;;;;;0.20;0.20;;;24.60;1.00;;;;;;5034536;28;20200;-81
2022/07/29 08:04:54;;;;;;;0.40;0.40;;;24.80;1.00;;;;;;5037484;28;20609;-81
2022/07/29 08:07:19;;;;;;;0.30;0.30;;;25.00;1.00;;;;;;5036390;28;20191;-80
2022/07/29 08:09:45;;;;;;;0.30;0.30;;;25.20;1.00;;;;;;5032423;28;20176;-81
2022/07/29 08:12:11;;;;;;;0.50;0.50;;;25.70;1.00;;;;;;5033353;28;20199;-81
2022/07/29 08:14:36;;;;;;;0.40;0.40;;;26.30;99.90;;;;;;5033798;28;20317;-81
2022/07/29 08:17:02;;;;;;;0.40;0.40;;;25.80;99.90;;;;;;5037051;28;20642;-81
2022/07/29 08:19:28;;;;;;;0.40;0.40;;;25.40;1.00;;;;;;5034944;28;20219;-82
2022/07/29 08:21:53;;;;;;;0.40;0.40;;;26.00;99.90;;;;;;5039067;28;20538;-81
2022/07/29 08:27:04;;;;;;;0.40;0.40;;;26.20;1.00;;;;;;5044466;28;20195;-82
2022/07/29 08:29:30;;;;;;;0.40;0.40;;;26.10;1.00;;;;;;5043002;28;20184;-81
2022/07/29 08:31:55;;;;;;;0.40;0.40;;;26.30;1.00;;;;;;5044291;28;20678;-82
2022/07/29 08:34:21;;;;;;;0.33;0.33;;;26.60;1.00;;;;;;5040007;28;20180;-82
2022/07/29 08:36:47;;;;;;;0.60;0.60;;;27.20;1.00;;;;;;5037666;28;20226;-82
2022/07/29 08:39:12;;;;;;;0.60;0.60;;;27.30;1.00;;;;;;5036154;28;20200;-81
2022/07/29 08:41:38;;;;;;;0.60;0.60;;;27.60;1.00;;;;;;5035052;28;20190;-82
2022/07/29 08:44:03;;;;;;;0.50;0.50;;;27.40;1.00;;;;;;5035981;28;20199;-81
2022/07/29 08:46:29;;;;;;;0.50;0.50;;;27.10;1.00;;;;;;5035076;28;20493;-80
2022/07/29 08:48:55;;;;;;;0.63;0.63;;;27.70;1.00;;;;;;5035219;28;20176;-80
2022/07/29 08:51:21;;;;;;;0.50;0.50;;;27.90;1.00;;;;;;5035147;28;20188;-80
2022/07/29 08:53:48;;;;;;;0.50;0.50;;;27.90;1.00;;;;;;5035790;28;20204;-81
2022/07/29 08:56:18;;;;;;;0.60;0.60;;;28.30;1.00;;;;;;5035594;28;20183;-80
2022/07/29 08:58:46;;;;;;;0.50;0.50;;;28.50;1.00;;;;;;5035675;28;20219;-81
2022/07/29 09:01:15;;;;;;;0.68;0.68;;;28.60;1.00;;;;;;5035904;28;20551;-81
2022/07/29 09:03:42;;;;;;;0.50;0.50;;;29.00;1.00;;;;;;5041171;28;20200;-81
2022/07/29 09:06:08;;;;;;;0.30;0.30;;;29.10;1.00;;;;;;5049812;28;20187;-81
2022/07/29 09:08:34;;;;;;;0.40;0.40;;;29.40;1.00;;;;;;5050938;28;20176;-81
2022/07/29 09:11:03;;;;;;;0.40;0.40;;;29.50;1.00;;;;;;5049057;28;20179;-81
2022/07/29 09:13:29;;;;;;;0.50;0.50;;;28.40;1.00;;;;;;5035198;28;20212;-80
2022/07/29 09:15:54;;;;;;;0.47;0.47;;;28.60;1.00;;;;;;5038163;28;20164;-79
2022/07/29 09:18:40;;;;;;;0.47;0.47;;;29.10;1.00;;;;;;5039200;28;20212;-81
2022/07/29 09:24:08;;;;;;;0.60;0.60;;;30.20;1.00;;;;;;5132043;22;20197;-81
2022/07/29 09:26:44;;;;;;;0.30;0.30;;;30.30;1.00;;;;;;5037151;28;20179;-83
2022/07/29 09:29:19;;;;;;;0.32;0.32;;;30.00;1.00;;;;;;5036219;28;20179;-82
2022/07/29 09:31:51;;;;;;;0.50;0.50;;;30.10;1.00;;;;;;5036866;28;20199;-82
2022/07/29 09:34:25;;;;;;;0.20;0.20;;;30.30;1.00;;;;;;5037475;28;20176;-84
2022/07/29 09:36:51;;;;;;;0.50;0.50;;;30.40;1.00;;;;;;5037375;28;20168;-83
2022/07/29 09:39:28;;;;;;;0.40;0.40;;;30.50;1.00;;;;;;5036834;28;20298;-83
2022/07/29 09:41:56;;;;;;;0.38;0.38;;;30.80;1.00;;;;;;5037003;28;20284;-81
2022/07/29 09:44:22;;;;;;;0.40;0.40;;;30.60;1.00;;;;;;5036331;28;20308;-81
2022/07/29 09:47:05;;;;;;;0.40;0.40;;;30.50;1.00;;;;;;5036580;28;20175;-81
2022/07/29 09:49:35;;;;;;;0.30;0.30;;;31.00;1.00;;;;;;5035230;28;20181;-80
2022/07/29 09:52:04;;;;;;;0.30;0.30;;;30.50;1.00;;;;;;5036164;28;20197;-81
2022/07/29 09:54:36;;;;;;;0.30;0.30;;;30.80;1.00;;;;;;5038587;28;20180;-79
2022/07/29 09:57:04;;;;;;;0.47;0.47;;;30.80;1.00;;;;;;5040121;28;20187;-79
2022/07/29 09:59:30;;;;;;;0.50;0.50;;;29.80;1.00;;;;;;5038962;28;20222;-79
2022/07/29 10:01:56;;;;;;;0.40;0.40;;;29.10;1.00;;;;;;5038644;28;20175;-79
2022/07/29 10:04:22;;;;;;;0.60;0.60;;;28.70;1.00;;;;;;5038994;28;20184;-79
2022/07/29 10:07:04;;;;;;;0.65;0.65;;;28.20;1.00;;;;;;5043446;28;20183;-79
2022/07/29 10:09:30;;;;;;;0.50;0.50;;;27.60;1.00;;;;;;5045274;28;20183;-79
2022/07/29 10:12:08;;;;;;;0.50;0.50;;;27.90;1.00;;;;;;5056362;28;20239;-79
2022/07/29 10:14:35;;;;;;;0.55;0.55;;;28.50;1.00;;;;;;5058927;28;20194;-80
2022/07/29 10:17:01;;;;;;;0.43;0.43;;;29.10;1.00;;;;;;5045399;28;20195;-78
2022/07/29 10:19:30;;;;;;;0.50;0.50;;;29.50;1.00;;;;;;5045387;28;20212;-79
2022/07/29 10:21:57;;;;;;;0.60;0.60;;;30.40;1.00;;;;;;5041905;28;20184;-79
2022/07/29 10:24:29;;;;;;;0.50;0.50;;;30.80;1.00;;;;;;5044682;28;20199;-80
2022/07/29 10:26:56;;;;;;;0.50;0.50;;;31.20;1.00;;;;;;5029123;28;20185;-78
2022/07/29 10:29:22;;;;;;;0.60;0.60;;;30.80;1.00;;;;;;5025062;28;20192;-79
2022/07/29 10:32:09;;;;;;;0.65;0.65;;;29.90;1.00;;;;;;5034087;28;20180;-79
2022/07/29 10:34:48;;;;;;;0.60;0.60;;;30.00;1.00;;;;;;5036156;28;20267;-79
2022/07/29 10:37:25;;;;;;;0.50;0.50;;;29.90;1.00;;;;;;5036241;28;20183;-80
2022/07/29 10:41:26;;;;;;;0.60;0.60;;;30.10;1.00;;;;;;5034253;28;20294;-80
2022/07/29 10:43:00;;;;;;;0.60;0.60;;;29.50;1.00;;;;;;5034013;28;20692;-80
2022/07/29 10:45:26;;;;;;;0.60;0.60;;;29.20;1.00;;;;;;5035461;28;20184;-80
2022/07/29 10:48:04;;;;;;;0.57;0.57;;;28.90;1.00;;;;;;5036185;28;20183;-78
2022/07/29 10:50:56;;;;;;;0.70;0.70;;;28.50;1.00;;;;;;5032481;28;20611;-80
2022/07/29 10:53:23;;;;;;;0.40;0.40;;;28.50;1.00;;;;;;5025741;28;20596;-79
2022/07/29 10:55:51;;;;;;;0.50;0.50;;;28.20;1.00;;;;;;5027496;28;20869;-80
2022/07/29 10:58:23;;;;;;;0.50;0.50;;;28.30;1.00;;;;;;5032453;28;20207;-79
2022/07/29 11:00:51;;;;;;;0.50;0.50;;;28.40;1.00;;;;;;5024273;28;20568;-80
2022/07/29 11:03:40;;;;;;;0.50;0.50;;;28.30;1.00;;;;;;5033767;28;20677;-80
2022/07/29 11:06:05;;;;;;;0.50;0.50;;;27.60;1.00;;;;;;5018039;28;20267;-80
2022/07/29 11:08:31;;;;;;;0.53;0.53;;;27.40;1.00;;;;;;5032991;28;20284;-80
2022/07/29 11:11:18;;;;;;;0.47;0.47;;;27.30;1.00;;;;;;5028444;28;20195;-79
2022/07/29 11:13:47;;;;;;;0.40;0.40;;;27.40;1.00;;;;;;5025142;28;20311;-78
2022/07/29 11:16:14;;;;;;;0.37;0.37;;;27.00;1.00;;;;;;5026310;28;20180;-79
2022/07/29 11:19:11;;;;;;;0.30;0.30;;;26.80;1.00;;;;;;5024773;28;20305;-80
2022/07/29 11:21:39;;;;;;;0.30;0.30;;;26.60;1.00;;;;;;5020661;28;20652;-79
2022/07/29 11:24:20;;;;;;;0.30;0.30;;;26.50;1.00;;;;;;5028494;28;20211;-80
2022/07/29 11:27:06;;;;;;;0.33;0.33;;;25.70;1.00;;;;;;5023152;28;20198;-80
2022/07/29 11:29:34;;;;;;;0.40;0.40;;;24.50;1.00;;;;;;5027060;28;20191;-79
2022/07/29 11:32:14;;;;;;;0.40;0.40;;;21.30;1.00;;;;;;5032349;28;20270;-83
2022/07/29 11:34:40;;;;;;;0.20;0.20;;;18.40;99.90;;;;;;5033075;28;20262;-82
2022/07/29 11:37:09;;;;;;;0.30;0.30;;;17.80;1.00;;;;;;5032478;28;20172;-80
2022/07/29 11:39:56;;;;;;;0.40;0.40;;;18.00;1.00;;;;;;5032645;28;20688;-81
2022/07/29 11:42:24;;;;;;;0.50;0.50;;;18.20;1.00;;;;;;5014177;28;20885;-84
2022/07/29 11:45:09;;;;;;;0.40;0.40;;;18.20;1.00;;;;;;5024205;28;20661;-83
2022/07/29 11:47:39;;;;;;;0.40;0.40;;;18.00;1.00;;;;;;5026388;28;20180;-84
2022/07/29 11:50:11;;;;;;;0.37;0.37;;;18.30;1.00;;;;;;5022905;28;20191;-84
2022/07/29 11:52:46;;;;;;;0.30;0.30;;;17.80;1.00;;;;;;5020298;28;20228;-84
2022/07/29 11:55:19;;;;;;;0.20;0.20;;;17.90;99.90;;;;;;5013279;28;20277;-83
2022/07/29 11:57:56;;;;;;;0.40;0.40;;;17.80;99.90;;;;;;5026997;28;20231;-83
2022/07/29 12:00:37;;;;;;;0.40;0.40;;;17.80;99.90;;;;;;5024407;28;20676;-82
2022/07/29 12:03:05;;;;;;;0.30;0.30;;;17.70;99.90;;;;;;5018541;28;20200;-85
2022/07/29 12:05:42;;;;;;;0.40;0.40;;;17.80;99.90;;;;;;5032343;28;20180;-83
2022/07/29 12:08:14;;;;;;;0.30;0.30;;;17.80;99.90;;;;;;5019827;28;20194;-83
2022/07/29 12:10:40;;;;;;;0.37;0.37;;;18.20;99.90;;;;;;5018974;28;20188;-85
2022/07/29 12:13:07;;;;;;;0.30;0.30;;;18.40;59.20;;;;;;5029945;28;20698;-82
2022/07/29 12:15:33;;;;;;;0.40;0.40;;;18.30;99.90;;;;;;5026544;28;20209;-83
2022/07/29 12:18:08;;;;;;;0.30;0.30;;;18.40;99.90;;;;;;5031682;28;20200;-81
2022/07/29 12:20:34;;;;;;;0.40;0.40;;;18.40;99.90;;;;;;5022621;28;20195;-81
2022/07/29 12:23:05;;;;;;;0.40;0.40;;;18.40;99.90;;;;;;5028764;28;20844;-81
2022/07/29 12:25:34;;;;;;;0.40;0.40;;;18.30;99.90;;;;;;5026293;28;20227;-81
2022/07/29 12:28:02;;;;;;;0.30;0.30;;;18.40;99.90;;;;;;5028667;28;20192;-81
2022/07/29 12:30:45;;;;;;;0.40;0.40;;;18.40;99.90;;;;;;5032925;28;20283;-80
2022/07/29 12:33:26;;;;;;;0.40;0.40;;;18.20;99.90;;;;;;5019835;28;20255;-79
2022/07/29 12:35:54;;;;;;;0.30;0.30;;;18.10;99.90;;;;;;5025234;28;20188;-80
2022/07/29 12:38:20;;;;;;;0.30;0.30;;;17.90;99.90;;;;;;5037838;28;20208;-80
2022/07/29 12:40:47;;;;;;;0.30;0.30;;;18.00;99.90;;;;;;5038882;28;20183;-79
2022/07/29 12:43:32;;;;;;;0.33;0.33;;;18.10;99.90;;;;;;5050146;28;20203;-79
2022/07/29 12:46:12;;;;;;;0.30;0.30;;;18.20;99.90;;;;;;5044975;28;20234;-79
2022/07/29 12:48:39;;;;;;;0.37;0.37;;;18.30;99.90;;;;;;5043363;28;20179;-79
2022/07/29 12:51:07;;;;;;;0.30;0.30;;;18.30;99.90;;;;;;5035633;28;20192;-79
2022/07/29 12:53:34;;;;;;;0.30;0.30;;;18.50;99.90;;;;;;5036409;28;20199;-80
2022/07/29 12:56:01;;;;;;;0.40;0.40;;;18.70;99.90;;;;;;5036091;28;20188;-79
2022/07/29 12:58:40;;;;;;;0.30;0.30;;;18.90;99.90;;;;;;5035606;28;20200;-80
2022/07/29 13:01:09;;;;;;;0.30;0.30;;;19.00;99.90;;;;;;5035258;28;20207;-80
2022/07/29 13:03:45;;;;;;;0.33;0.33;;;19.00;99.90;;;;;;5035295;28;20283;-79
2022/07/29 13:06:40;;;;;;;0.23;0.23;;;19.00;99.90;;;;;;5028592;28;20269;-79
2022/07/29 13:09:11;;;;;;;0.43;0.43;;;19.00;99.90;;;;;;5018081;28;20173;-80
2022/07/29 13:11:41;;;;;;;0.30;0.30;;;19.10;99.90;;;;;;5026750;28;20613;-81
2022/07/29 13:14:09;;;;;;;0.40;0.40;;;18.90;99.90;;;;;;5023905;28;20188;-80